EGMD/LYX METAR and TAF weather

Enter ICAO airport designator
Station Type Date Time Source
EGMD METAR 2019/04/18 20:20 UTC NOAA

EGMD 182020Z AUTO 05012KT 9999 NCD 14/08 Q1024


Station Type Date Time Source
EGMD Decoded METAR 2019/04/18 20:20 UTC NOAA

Lydd Airport , United Kingdom (EGMD) 50-57N 000-56E
Apr 18, 2019 - 04:20 PM EDT / 2019.04.18 2020 UTC
Wind: from the NE (050 degrees) at 14 MPH (12 KT):0
Visibility: greater than 7 mile(s):0
Temperature: 57 F (14 C)
Dew Point: 46 F (8 C)
Relative Humidity: 67%
Pressure (altimeter): 30.24 in. Hg (1024 hPa)
ob: EGMD 182020Z AUTO 05012KT 9999 NCD 14/08 Q1024
cycle: 20

Station Type Date Time Source
EGMD TAF UTC NOAA

Error!

Example: see airport list